Aérodrome :
LOGIN :

S'inscrire | Disclaimer

   EN    FR    IT 

 










Légende :    VFR   VFR Marginal   IFR   IFR Intensif   IFR Très Intensif
Visi : 
Plafond : 
>= 8 km
>= 3000ft
5 à 8 km
1000 à 3000 ft
1500m à 5 km
500 à 1000 ft
800 à 1500m
200 à 500 ft
< 800m
< 200 ft
Symboles :   Orages  Brouillard  Fortes neiges  Fortes précipitations  Vent > 20 kt
SIGMETs :   Divers  Orages  Givrage  Turbulence  Onde Orograph.  Cendres Volcan.






- Altitude de l'aérodrome : 37 ft
- Code IATA : HLY


EGOV - RAF Valley

DERNIER METAR :
  • 131720Z 22005KT 9999 FEW002 SCT038 OVC043 15/14 Q1019 NOSIG RMK BLU BLU

METARs EXPIRÉS :
  • 131650Z 22007KT 9999 FEW002 SCT037 OVC041 15/14 Q1019 NOSIG RMK BLU BLU
  • 131550Z 22007KT 9999 FEW002 BKN034 17/15 Q1019 BLU NOSIG RMK BLU BLU
  • 131520Z 23007KT 9999 FEW002 BKN029 16/15 Q1020 NOSIG RMK BLU BLU
  • 131450Z 25008KT 9999 7000SE HZ FEW002 BKN030 16/15 Q1020 TEMPO 9999 NSW SCT022 RMK WHT TEMPO BLU

TAF TAF EGOV
Valide du 13 à 15h jusqu'au 13 à 19h UTC


131349Z 1315/1319 26010KT 9999 FEW020 BKN048
TEMPO 1315/1319 SCT020



MET'MAP, la Météo Aéronautique d'un coup d'oeil ! - Copyright ORBIFLY Décembre 2007 - Disclaimer

ORBIFLY MET'MAP TEAM :

Programmation & Développement : Alexandra Zaïnal
Sur une idée originale de : Baudouin d'Aumeries
Assistance à la programmation : Marc-Olivier Méhu
Soutien technique & logistique : Manuel Goepfert

Contact : metmap@orbifly.com




SOURCES & CREDITS :

   NOAA